Data for 06/11/2008

Time Sea-Level Adjusted Pressure Absolute Pressure Temperature Relative Humidity Dew Point   
(mb) (inHg) (mb) (inHg) (C) (F) (%) (C) (F)
00:05 1012 29.88 841 24.83 2.7 36.8 76 -1.2 29.9
00:10 1012 29.88 841 24.83 2.8 37 74 -1.5 29.4
00:15 1012 29.88 841 24.83 3 37.4 74 -1.2 29.8
00:20 1012 29.88 841 24.83 3 37.5 76 -0.8 30.5
00:25 1012 29.88 841 24.83 2.6 36.8 77 -1 30.2
00:30 1012 29.88 841 24.83 2.5 36.4 78 -1 30.2
00:35 1012 29.88 841 24.83 2.5 36.6 77 -1.1 30.1
00:40 1012 29.88 841 24.83 2.8 37 77 -0.8 30.6
00:45 1012 29.88 841 24.83 2.8 37 78 -0.8 30.6
00:50 1012 29.88 841 24.83 2.6 36.8 79 -0.6 30.9
00:55 1012 29.88 841 24.83 2.4 36.3 80 -0.8 30.6
01:00 1012 29.88 841 24.83 2.4 36.3 80 -0.7 30.7
01:05 1012 29.88 841 24.83 2.6 36.6 79 -0.7 30.7
01:10 1012 29.88 841 24.83 2.8 37 76 -1 30.1
01:15 1012 29.88 841 24.83 3 37.4 76 -0.7 30.7
01:20 1012 29.88 841 24.83 2.9 37.2 78 -0.5 31
01:25 1012 29.88 841 24.83 2.9 37.2 77 -0.8 30.5
01:30 1012 29.88 841 24.83 2.9 37.3 78 -0.6 30.9
01:35 1012 29.88 841 24.83 2.8 37 77 -0.8 30.6
01:40 1012 29.88 841 24.83 2.7 36.9 79 -0.6 30.9
01:45 1011 29.85 841 24.83 2.7 36.9 79 -0.5 31.2
01:50 1011 29.85 841 24.83 2.7 36.9 80 -0.4 31.2
01:55 1011 29.85 841 24.83 2.7 36.9 79 -0.5 31.1
02:00 1011 29.85 840 24.81 2.7 36.9 80 -0.5 31.1
02:05 1011 29.85 840 24.81 2.6 36.7 78 -0.8 30.5
02:10 1011 29.85 840 24.81 2.7 36.8 78 -0.8 30.6
02:15 1011 29.85 840 24.81 2.6 36.7 75 -1.3 29.6
02:20 1011 29.85 840 24.81 2.9 37.1 73 -1.6 29.1
02:25 1011 29.85 840 24.81 3 37.3 70 -2 28.4
02:30 1011 29.85 840 24.81 3 37.3 70 -1.9 28.5
02:35 1011 29.85 840 24.81 2.4 36.4 77 -1.2 29.9
02:40 1011 29.85 840 24.81 2.1 35.7 77 -1.5 29.2
02:45 1011 29.85 840 24.81 2.1 35.9 76 -1.7 28.9
02:50 1011 29.85 840 24.81 2.4 36.3 72 -2.2 28
02:55 1011 29.85 840 24.81 2.7 36.8 72 -1.9 28.6
03:00 1011 29.85 840 24.81 2.4 36.3 76 -1.4 29.5
03:05 1011 29.85 840 24.81 1.9 35.5 79 -1.4 29.5
03:10 1011 29.85 840 24.81 1.7 35 80 -1.4 29.5
03:15 1011 29.85 840 24.81 1.5 34.7 81 -1.4 29.4
03:20 1010 29.83 840 24.81 1.5 34.8 81 -1.4 29.5
03:25 1010 29.83 840 24.81 1.4 34.4 82 -1.4 29.5
03:30 1010 29.83 839 24.78 1.2 34.1 83 -1.4 29.4
03:35 1010 29.83 839 24.78 1 33.8 84 -1.5 29.4
03:40 1010 29.83 839 24.78 0.9 33.6 84 -1.5 29.4
03:45 1010 29.83 839 24.78 0.8 33.4 85 -1.4 29.4
03:50 1010 29.83 839 24.78 0.9 33.6 85 -1.4 29.5
03:55 1010 29.83 839 24.78 0.9 33.6 86 -1.2 29.8
04:00 1010 29.83 839 24.78 0.7 33.2 85 -1.5 29.2
04:05 1010 29.83 839 24.78 0.8 33.4 85 -1.5 29.3
04:10 1010 29.83 839 24.78 0.6 33.1 85 -1.6 29.1
04:15 1010 29.83 839 24.78 0.7 33.2 85 -1.6 29.2
04:20 1010 29.83 839 24.78 0.7 33.3 85 -1.5 29.2
04:25 1010 29.83 839 24.78 0.8 33.5 85 -1.5 29.3
04:30 1010 29.83 839 24.78 0.9 33.5 85 -1.4 29.5
04:35 1010 29.83 839 24.78 0.6 33.1 86 -1.5 29.3
04:40 1010 29.83 839 24.78 0.6 33 84 -1.8 28.8
04:45 1009 29.8 839 24.78 0.9 33.6 83 -1.6 29
04:50 1009 29.8 839 24.78 1.1 34 79 -2.1 28.2
04:55 1009 29.8 839 24.78 1.4 34.5 77 -2.3 27.9
05:00 1009 29.8 839 24.78 1.5 34.7 77 -2.1 28.2
05:05 1009 29.8 839 24.78 1.5 34.7 77 -2.1 28.3
05:10 1009 29.8 839 24.78 1.5 34.7 77 -2.1 28.3
05:15 1009 29.8 838 24.75 1.6 34.9 75 -2.4 27.7
05:20 1009 29.8 838 24.75 2 35.5 71 -2.7 27.1
05:25 1009 29.8 838 24.75 2.2 36 69 -2.8 27
05:30 1009 29.8 838 24.75 2.4 36.4 68 -2.9 26.7
05:35 1009 29.8 838 24.75 2.8 37 63 -3.6 25.5
05:40 1009 29.8 838 24.75 3.1 37.6 64 -3.1 26.4
05:45 1009 29.8 838 24.75 2.9 37.3 65 -3 26.5
05:50 1009 29.8 838 24.75 2.8 37 66 -3 26.6
05:55 1009 29.8 838 24.75 2.7 36.9 66 -3.1 26.4
06:00 1009 29.8 838 24.75 2.8 37 65 -3.2 26.2
06:05 1009 29.8 838 24.75 2.9 37.2 64 -3.3 26.1
06:10 1009 29.8 838 24.75 3 37.4 63 -3.3 26
06:15 1009 29.8 838 24.75 3 37.4 64 -3.1 26.4
06:20 1009 29.8 838 24.75 3 37.3 63 -3.3 26
06:25 1009 29.8 838 24.75 3 37.5 63 -3.3 26
06:30 1009 29.8 838 24.75 3 37.5 64 -3.1 26.4
06:35 1009 29.8 838 24.75 3.1 37.5 63 -3.3 26.1
06:40 1009 29.8 838 24.75 3.3 37.9 62 -3.3 26.1
06:45 1009 29.8 838 24.75 3.4 38.2 61 -3.3 26.1
06:50 1009 29.8 838 24.75 3.5 38.3 61 -3.3 26
06:55 1009 29.8 838 24.75 3.6 38.5 61 -3.1 26.3
07:00 1009 29.8 838 24.75 3.6 38.5 62 -3 26.7
07:05 1009 29.8 838 24.75 3.7 38.6 62 -3 26.6
07:10 1009 29.8 838 24.75 3.7 38.6 61 -3.1 26.5
07:15 1009 29.8 838 24.75 3.7 38.7 61 -3.2 26.2
07:20 1009 29.8 838 24.75 3.8 38.8 61 -3 26.7
07:25 1009 29.8 838 24.75 3.7 38.7 62 -2.9 26.7
07:30 1009 29.8 838 24.75 3.7 38.6 63 -2.8 26.9
07:35 1008 29.77 838 24.75 3.5 38.3 64 -2.7 27.2
07:40 1008 29.77 838 24.75 3.4 38.1 66 -2.4 27.7
07:45 1008 29.77 837 24.72 3.2 37.8 68 -2.1 28.1
07:50 1008 29.77 837 24.72 3.1 37.6 69 -1.9 28.5
07:55 1008 29.77 837 24.72 3 37.4 71 -1.7 28.9
08:00 1008 29.77 837 24.72 3 37.5 71 -1.7 29
08:05 1008 29.77 837 24.72 3 37.4 72 -1.5 29.2
08:10 1008 29.77 837 24.72 3 37.4 73 -1.4 29.4
08:15 1008 29.77 837 24.72 2.8 37.1 75 -1.3 29.7
08:20 1008 29.77 838 24.75 2.4 36.4 78 -1 30.2
08:25 1008 29.77 838 24.75 1.9 35.5 84 -0.5 31
08:30 1008 29.77 838 24.75 1.4 34.6 88 -0.4 31.3
08:35 1008 29.77 838 24.75 1.2 34.1 90 -0.3 31.4
08:40 1008 29.77 838 24.75 0.9 33.7 92 -0.2 31.6
08:45 1008 29.77 838 24.75 0.7 33.3 95 -0.1 31.9
08:50 1009 29.8 838 24.75 0.5 32.9 97 0 32
08:55 1009 29.8 838 24.75 0.4 32.7 98 0.1 32.2
09:00 1009 29.8 838 24.75 0.3 32.5 99 0.2 32.3
09:05 1009 29.8 838 24.75 0.3 32.5 100 0.3 32.5
09:10 1009 29.8 838 24.75 0.3 32.6 100 0.3 32.6
09:15 1009 29.8 838 24.75 0.4 32.7 100 0.4 32.7
09:20 1009 29.8 838 24.75 0.4 32.7 100 0.4 32.7
09:25 1009 29.8 838 24.75 0.5 32.9 100 0.5 32.9
09:30 1009 29.8 838 24.75 0.5 32.8 100 0.5 32.8
09:35 1009 29.8 838 24.75 0.5 32.9 100 0.5 32.9
09:40 1009 29.8 838 24.75 0.6 33.1 100 0.6 33.1
09:45 1009 29.8 838 24.75 0.6 33.1 100 0.6 33.1
09:50 1009 29.8 838 24.75 0.7 33.2 100 0.7 33.2
09:55 1009 29.8 838 24.75 0.7 33.3 100 0.7 33.3
10:00 1009 29.8 838 24.75 0.7 33.3 100 0.7 33.3
10:05 1009 29.8 838 24.75 0.8 33.4 100 0.8 33.4
10:10 1009 29.8 838 24.75 0.8 33.5 164 7.9 46.2
10:15 1009 29.8 838 24.75 0.9 33.5 164 7.9 46.2
10:20 1009 29.8 838 24.75 1 33.8 164 8.1 46.5
10:25 1009 29.8 838 24.75 1 33.8 164 8.1 46.5
10:30 1009 29.8 838 24.75 1.2 34.2 164 8.3 46.9
10:35 1009 29.8 838 24.75 1.5 34.7 164 8.6 47.4
10:40 1009 29.8 838 24.75 1.9 35.3 164 8.9 48.1
10:45 1009 29.8 838 24.75 2.1 35.8 164 9.2 48.6
10:50 1009 29.8 838 24.75 2.4 36.3 164 9.5 49.1
10:55 1009 29.8 838 24.75 2.7 36.8 164 9.8 49.6
11:00 1009 29.8 838 24.75 2.9 37.3 164 10.1 50.1
11:05 1009 29.8 838 24.75 3.3 37.9 164 10.4 50.8
11:10 1009 29.8 838 24.75 3.7 38.6 164 10.8 51.5
11:15 1009 29.8 838 24.75 4.1 39.3 164 11.3 52.3
11:20 1009 29.8 838 24.75 4 39.2 164 11.2 52.2
11:25 1009 29.8 838 24.75 3 37.5 164 10.2 50.3
11:30 1009 29.8 838 24.75 3 37.5 164 10.2 50.3
11:35 1009 29.8 838 24.75 3.3 37.9 164 10.4 50.8
11:40 1009 29.8 838 24.75 3.6 38.4 164 10.8 51.4
11:45 1009 29.8 839 24.78 3.8 38.9 164 11 51.8
11:50 1009 29.8 839 24.78 3.8 38.8 164 11 51.7
11:55 1010 29.83 839 24.78 3.5 38.2 162 10.4 50.8
12:00 1010 29.83 839 24.78 3.6 38.6 161 10.5 50.9
12:05 1010 29.83 839 24.78 3.8 38.9 155 10.2 50.3
12:10 1010 29.83 839 24.78 3.9 39 152 9.9 49.9
12:15 1010 29.83 839 24.78 3.9 39 147 9.4 49
12:20 1010 29.83 839 24.78 3.8 38.8 141 8.8 47.8
12:25 1010 29.83 839 24.78 3.7 38.7 141 8.6 47.5
12:30 1010 29.83 839 24.78 3.8 38.8 140 8.6 47.5
12:35 1010 29.83 839 24.78 3.9 39 138 8.5 47.3
12:40 1010 29.83 839 24.78 3.8 38.9 138 8.5 47.2
12:45 1010 29.83 839 24.78 4.1 39.4 139 8.8 47.9
12:50 1010 29.83 839 24.78 4.3 39.7 137 8.8 47.8
12:55 1010 29.83 839 24.78 4 39.3 136 8.5 47.3
13:00 1010 29.83 839 24.78 4.1 39.4 133 8.2 46.8
13:05 1010 29.83 839 24.78 4.3 39.8 132 8.4 47.1
13:10 1010 29.83 839 24.78 4.6 40.2 131 8.5 47.3
13:15 1010 29.83 839 24.78 4.8 40.7 130 8.7 47.6
13:20 1010 29.83 839 24.78 4.8 40.7 130 8.6 47.5
13:25 1010 29.83 839 24.78 5.1 41.1 128 8.7 47.6
13:30 1010 29.83 839 24.78 5.3 41.6 128 8.9 48
13:35 1010 29.83 839 24.78 5.5 41.9 128 9.1 48.3
13:40 1010 29.83 839 24.78 5.7 42.3 126 9 48.3
13:45 1010 29.83 839 24.78 6 42.8 123 9.1 48.3
13:50 1010 29.83 839 24.78 6.1 42.9 123 9.1 48.3
13:55 1010 29.83 839 24.78 6 42.7 121 8.7 47.7
14:00 1010 29.83 839 24.78 6.2 43.2 119 8.8 47.8
14:05 1010 29.83 839 24.78 6.6 43.8 117 8.8 47.8
14:10 1010 29.83 839 24.78 6.8 44.2 112 8.5 47.3
14:15 1010 29.83 839 24.78 6.7 44.1 110 8.2 46.7
14:20 1010 29.83 839 24.78 6.6 43.9 110 8 46.4
14:25 1010 29.83 840 24.81 7.1 44.8 100 7.1 44.8
14:30 1010 29.83 840 24.81 6.8 44.3 100 6.8 44.3
14:35 1010 29.83 840 24.81 6.2 43.1 112 7.8 46.1
14:40 1010 29.83 840 24.81 5.8 42.5 117 8.1 46.5
14:45 1010 29.83 840 24.81 5.8 42.4 119 8.3 46.9
14:50 1010 29.83 840 24.81 6.3 43.3 122 9.2 48.5
14:55 1010 29.83 840 24.81 6.9 44.4 118 9.2 48.6
15:00 1010 29.83 840 24.81 6.7 44.1 117 9 48.2
15:05 1010 29.83 840 24.81 6.9 44.3 114 8.7 47.7
15:10 1011 29.85 840 24.81 6.7 44 111 8.2 46.7
15:15 1011 29.85 840 24.81 6.7 44 110 8.1 46.5
15:20 1011 29.85 840 24.81 6.9 44.4 109 8.1 46.6
15:25 1011 29.85 840 24.81 7 44.6 100 7 44.6
15:30 1011 29.85 840 24.81 7.1 44.8 100 7.1 44.8
15:35 1011 29.85 840 24.81 7.2 45 100 7.2 45
15:40 1011 29.85 840 24.81 7.1 44.8 100 7.1 44.8
15:45 1011 29.85 840 24.81 6.9 44.4 100 6.9 44.4
15:50 1011 29.85 840 24.81 6.4 43.6 109 7.7 45.9
15:55 1011 29.85 840 24.81 6.1 42.9 114 8 46.4
16:00 1011 29.85 840 24.81 6 42.8 118 8.4 47.2
16:05 1011 29.85 840 24.81 5.9 42.6 120 8.5 47.4
16:10 1011 29.85 840 24.81 5.7 42.2 122 8.5 47.4
16:15 1011 29.85 840 24.81 5.7 42.3 123 8.7 47.7
16:20 1011 29.85 840 24.81 5.8 42.4 124 8.9 48
16:25 1011 29.85 840 24.81 5.9 42.7 124 9.1 48.3
16:30 1011 29.85 840 24.81 6 42.9 122 9 48.2
16:35 1011 29.85 840 24.81 6.1 42.9 121 8.8 47.8
16:40 1011 29.85 840 24.81 6.1 43 119 8.7 47.6
16:45 1011 29.85 840 24.81 6 42.8 119 8.5 47.3
16:50 1011 29.85 840 24.81 5.5 42 121 8.3 47
16:55 1011 29.85 841 24.83 5.6 42 123 8.6 47.4
17:00 1011 29.85 841 24.83 5.6 42.2 123 8.6 47.5
17:05 1011 29.85 841 24.83 5.5 41.8 124 8.5 47.4
17:10 1012 29.88 841 24.83 5.3 41.5 126 8.7 47.6
17:15 1012 29.88 841 24.83 5.5 41.8 128 9 48.2
17:20 1012 29.88 841 24.83 5.7 42.2 128 9.3 48.7
17:25 1012 29.88 841 24.83 5.7 42.3 129 9.4 49
17:30 1012 29.88 841 24.83 5.7 42.3 129 9.5 49
17:35 1012 29.88 841 24.83 5.8 42.5 130 9.6 49.3
17:40 1012 29.88 841 24.83 5.9 42.7 128 9.6 49.2
17:45 1012 29.88 841 24.83 6 42.9 128 9.6 49.3
17:50 1012 29.88 841 24.83 6.1 43 126 9.5 49.1
17:55 1012 29.88 841 24.83 6.1 42.9 126 9.4 49
18:00 1012 29.88 841 24.83 6.1 43.1 124 9.3 48.7
18:05 1012 29.88 841 24.83 6.1 43 123 9.2 48.5
18:10 1012 29.88 841 24.83 6.2 43.1 123 9.2 48.6
18:15 1012 29.88 841 24.83 6.2 43.2 125 9.4 49
18:20 1012 29.88 841 24.83 6.2 43.1 124 9.3 48.7
18:25 1012 29.88 841 24.83 6.1 42.9 124 9.2 48.6
18:30 1012 29.88 841 24.83 5.9 42.7 125 9.2 48.5
18:35 1012 29.88 841 24.83 5.8 42.5 125 9 48.3
18:40 1012 29.88 841 24.83 5.8 42.4 124 8.9 48.1
18:45 1012 29.88 841 24.83 5.9 42.5 124 9 48.3
18:50 1012 29.88 842 24.86 5.9 42.6 125 9.1 48.4
18:55 1012 29.88 842 24.86 5.8 42.5 125 9 48.2
19:00 1012 29.88 842 24.86 5.7 42.2 124 8.8 47.9
19:05 1012 29.88 842 24.86 5.6 42 124 8.7 47.6
19:10 1012 29.88 842 24.86 5.6 42 125 8.8 47.9
19:15 1012 29.88 842 24.86 5.6 42 126 8.9 48
19:20 1013 29.91 842 24.86 5.6 42.1 127 9 48.2
19:25 1013 29.91 842 24.86 5.5 42 126 8.9 48.1
19:30 1013 29.91 842 24.86 5.5 41.9 127 9 48.3
19:35 1013 29.91 842 24.86 5.4 41.7 128 9 48.1
19:40 1013 29.91 842 24.86 5.1 41.2 129 8.8 47.8
19:45 1013 29.91 842 24.86 4.8 40.7 131 8.7 47.7
19:50 1013 29.91 842 24.86 4.8 40.6 132 8.8 47.9
19:55 1013 29.91 842 24.86 4.7 40.4 133 8.8 47.9
20:00 1013 29.91 842 24.86 4.6 40.2 135 8.9 48
20:05 1013 29.91 842 24.86 4.6 40.2 136 9 48.2
20:10 1013 29.91 843 24.89 4.5 40.2 137 9.1 48.4
20:15 1013 29.91 843 24.89 4.5 40 140 9.3 48.7
20:20 1013 29.91 843 24.89 4.4 40 141 9.4 49
20:25 1013 29.91 843 24.89 4.4 39.9 141 9.4 48.9
20:30 1014 29.94 843 24.89 4.3 39.8 142 9.4 48.9
20:35 1014 29.94 843 24.89 4.2 39.6 142 9.3 48.7
20:40 1014 29.94 843 24.89 4.2 39.5 142 9.2 48.5
20:45 1014 29.94 843 24.89 4.2 39.5 143 9.4 48.9
20:50 1014 29.94 843 24.89 3.9 39 143 9.1 48.4
20:55 1014 29.94 843 24.89 3.6 38.6 145 9 48.2
21:00 1014 29.94 843 24.89 3.6 38.4 147 9.1 48.3
21:05 1014 29.94 843 24.89 3.5 38.3 148 9.2 48.5
21:10 1014 29.94 843 24.89 3.4 38.2 150 9.3 48.8
21:15 1014 29.94 843 24.89 3.4 38.2 152 9.5 49.1
21:20 1014 29.94 843 24.89 3.4 38.1 155 9.7 49.4
21:25 1014 29.94 843 24.89 3.4 38.2 157 9.9 49.9
21:30 1014 29.94 843 24.89 3.4 38.1 160 10.1 50.2
21:35 1014 29.94 843 24.89 3.3 38 163 10.4 50.7
21:40 1014 29.94 843 24.89 3.3 38 164 10.5 50.8
21:45 1014 29.94 844 24.92 3.3 37.9 164 10.4 50.8
21:50 1014 29.94 844 24.92 3.3 37.9 164 10.4 50.8
21:55 1015 29.97 844 24.92 3.2 37.7 164 10.3 50.6
22:00 1014 29.94 844 24.92 3.1 37.5 164 10.2 50.4
22:05 1014 29.94 844 24.92 3 37.3 164 10.1 50.2
22:10 1014 29.94 844 24.92 3 37.3 164 10.1 50.2
22:15 1014 29.94 844 24.92 3 37.4 164 10.1 50.3
22:20 1014 29.94 844 24.92 3 37.4 164 10.1 50.2
22:25 1014 29.94 844 24.92 3 37.3 164 10.1 50.2
22:30 1014 29.94 844 24.92 3.1 37.5 164 10.2 50.4
22:35 1014 29.94 844 24.92 3.2 37.7 164 10.3 50.6
22:40 1014 29.94 844 24.92 3.2 37.8 164 10.4 50.7
22:45 1015 29.97 844 24.92 3.2 37.7 164 10.3 50.6
22:50 1015 29.97 844 24.92 3.2 37.7 164 10.3 50.6
22:55 1015 29.97 844 24.92 3.1 37.6 164 10.3 50.5
23:00 1015 29.97 844 24.92 3.2 37.7 164 10.3 50.6
23:05 1015 29.97 844 24.92 3.1 37.5 164 10.2 50.4
23:10 1015 29.97 844 24.92 2.9 37.2 164 10 50
23:15 1015 29.97 844 24.92 2.8 37.1 164 10 50
23:20 1015 29.97 844 24.92 2.8 37.1 164 10 49.9
23:25 1015 29.97 844 24.92 2.9 37.2 164 10 50
23:30 1015 29.97 844 24.92 2.9 37.2 164 10 50.1
23:35 1015 29.97 844 24.92 2.8 37.1 164 10 49.9
23:40 1015 29.97 844 24.92 2.9 37.2 164 10 50.1
23:45 1015 29.97 844 24.92 2.7 36.9 164 9.9 49.7
23:50 1015 29.97 844 24.92 2.5 36.6 164 9.7 49.4
23:55 1015 29.97 844 24.92 2.5 36.5 164 9.6 49.3
24:00 1015 29.97 844 24.92 2.5 36.6 164 9.7 49.4